createdAt,value
2023-06-22T00:00:13.119Z,19.90
2023-06-22T00:02:40.501Z,22.70
2023-06-22T00:05:08.020Z,27.63
2023-06-22T00:07:35.328Z,30.00
2023-06-22T00:10:02.610Z,31.60
2023-06-22T00:12:29.915Z,30.33
2023-06-22T00:14:57.129Z,34.28
2023-06-22T00:17:24.438Z,35.20
2023-06-22T00:19:54.664Z,34.53
2023-06-22T00:22:29.550Z,39.65
2023-06-22T00:24:57.525Z,38.75
2023-06-22T00:27:24.820Z,34.38
2023-06-22T00:29:52.145Z,35.67
2023-06-22T00:32:19.977Z,30.80
2023-06-22T00:34:48.883Z,34.17
2023-06-22T00:37:16.181Z,32.60
2023-06-22T00:39:46.507Z,34.42
2023-06-22T00:42:13.683Z,32.20
2023-06-22T00:44:41.713Z,36.58
2023-06-22T00:47:10.200Z,33.55
2023-06-22T00:49:37.604Z,30.50
2023-06-22T00:52:04.992Z,33.25
2023-06-22T00:54:32.284Z,31.50
2023-06-22T00:57:01.167Z,35.63
2023-06-22T00:59:29.695Z,32.00
2023-06-22T01:01:57.216Z,28.65
2023-06-22T01:04:36.276Z,25.58
2023-06-22T01:07:09.617Z,28.13
2023-06-22T01:10:03.947Z,23.83
2023-06-22T01:12:35.581Z,21.35
2023-06-22T01:15:22.278Z,27.90
2023-06-22T01:17:50.940Z,21.45
2023-06-22T01:20:18.695Z,21.20
2023-06-22T01:23:23.348Z,27.60
2023-06-22T01:26:00.433Z,23.48
2023-06-22T01:28:45.800Z,24.67
2023-06-22T01:31:16.865Z,18.40
2023-06-22T01:33:46.328Z,21.17
2023-06-22T01:36:15.996Z,21.15
2023-06-22T01:38:43.495Z,18.08
2023-06-22T01:41:12.028Z,21.00
2023-06-22T01:43:40.187Z,20.95
2023-06-22T01:46:07.536Z,16.23
2023-06-22T01:48:35.239Z,17.77
2023-06-22T01:51:04.249Z,17.70
2023-06-22T01:53:31.530Z,18.95
2023-06-22T01:55:59.385Z,17.20
2023-06-22T01:58:32.646Z,24.90
2023-06-22T02:01:10.980Z,17.33
2023-06-22T02:03:55.184Z,16.88
2023-06-22T02:06:26.365Z,18.05
2023-06-22T02:08:58.250Z,13.93
2023-06-22T02:11:28.570Z,19.67
2023-06-22T02:13:58.698Z,16.05
2023-06-22T02:16:31.036Z,16.60
2023-06-22T02:19:04.248Z,15.60
2023-06-22T02:21:35.334Z,16.27
2023-06-22T02:24:02.651Z,17.93
2023-06-22T02:26:32.039Z,17.55
2023-06-22T02:28:59.535Z,16.33
2023-06-22T02:31:31.489Z,18.58
2023-06-22T02:33:59.808Z,16.17
2023-06-22T02:36:28.218Z,16.50
2023-06-22T02:38:58.472Z,17.30
2023-06-22T02:41:25.781Z,15.68
2023-06-22T02:43:53.061Z,16.90
2023-06-22T02:46:20.907Z,17.30
2023-06-22T02:48:48.145Z,16.83
2023-06-22T02:51:16.302Z,17.45
2023-06-22T02:53:46.560Z,17.50
2023-06-22T02:56:15.207Z,18.42
2023-06-22T02:58:42.433Z,17.30
2023-06-22T03:01:14.158Z,16.47
2023-06-22T03:03:43.537Z,15.90
2023-06-22T03:06:15.209Z,15.95
2023-06-22T03:08:43.254Z,14.50
2023-06-22T03:11:11.496Z,15.90
2023-06-22T03:13:39.047Z,15.70
2023-06-22T03:16:08.040Z,14.50
2023-06-22T03:18:35.411Z,14.65
2023-06-22T03:21:03.539Z,12.68
2023-06-22T03:23:32.460Z,13.80
2023-06-22T03:25:59.708Z,13.80
2023-06-22T03:28:26.996Z,15.55
2023-06-22T03:30:54.203Z,13.13
2023-06-22T03:33:21.471Z,13.80
2023-06-22T03:35:48.880Z,11.50
2023-06-22T03:38:16.252Z,13.97
2023-06-22T03:40:43.607Z,11.73
2023-06-22T03:43:10.842Z,12.40
2023-06-22T03:45:38.364Z,11.82
2023-06-22T03:48:05.919Z,13.10
2023-06-22T03:50:33.261Z,12.87
2023-06-22T03:53:00.552Z,10.02
2023-06-22T03:55:27.792Z,12.77
2023-06-22T03:57:57.946Z,12.10
2023-06-22T04:00:25.270Z,14.55
2023-06-22T04:02:52.603Z,11.23
2023-06-22T04:05:20.419Z,11.60
2023-06-22T04:07:47.638Z,10.23
2023-06-22T04:10:17.366Z,9.95
2023-06-22T04:12:45.564Z,9.70
2023-06-22T04:15:13.349Z,13.13
2023-06-22T04:17:40.625Z,9.50
2023-06-22T04:20:08.864Z,9.45
2023-06-22T04:22:36.236Z,12.35
2023-06-22T04:25:03.527Z,10.10
2023-06-22T04:27:30.748Z,10.30
2023-06-22T04:30:01.577Z,8.65
2023-06-22T04:32:29.032Z,11.10
2023-06-22T04:34:56.380Z,13.05
2023-06-22T04:37:24.492Z,11.15
2023-06-22T04:39:51.750Z,8.73
2023-06-22T04:42:18.971Z,10.95
2023-06-22T04:44:46.188Z,12.40
2023-06-22T04:47:13.492Z,11.55
2023-06-22T04:49:44.258Z,11.63
2023-06-22T04:52:13.648Z,13.63
2023-06-22T04:54:48.598Z,9.10
2023-06-22T04:57:16.009Z,11.52
2023-06-22T04:59:43.655Z,10.90
2023-06-22T05:02:11.200Z,9.13
2023-06-22T05:04:42.120Z,8.20
2023-06-22T05:07:10.196Z,9.30
2023-06-22T05:09:37.543Z,13.55
2023-06-22T05:12:07.192Z,11.48
2023-06-22T05:14:34.975Z,12.25
2023-06-22T05:17:05.021Z,11.50
2023-06-22T05:19:35.259Z,12.95
2023-06-22T05:22:02.898Z,11.20
2023-06-22T05:24:30.226Z,11.38
2023-06-22T05:26:57.389Z,12.05
2023-06-22T05:29:24.559Z,10.17
2023-06-22T05:31:51.859Z,10.75
2023-06-22T05:34:19.216Z,9.95
2023-06-22T05:36:46.413Z,11.65
2023-06-22T05:39:14.906Z,9.00
2023-06-22T05:41:43.462Z,9.77
2023-06-22T05:44:10.827Z,11.85
2023-06-22T05:46:38.421Z,13.02
2023-06-22T05:49:05.613Z,13.32
2023-06-22T05:51:32.819Z,13.13
2023-06-22T05:54:00.171Z,11.23
2023-06-22T05:56:27.315Z,13.32
2023-06-22T05:58:54.526Z,11.35
2023-06-22T06:01:21.781Z,11.73
2023-06-22T06:03:50.627Z,13.57
2023-06-22T06:06:18.299Z,11.30
2023-06-22T06:08:45.601Z,13.13
2023-06-22T06:11:12.842Z,13.27
2023-06-22T06:13:40.087Z,14.93
2023-06-22T06:16:07.309Z,11.77
2023-06-22T06:18:34.580Z,12.03
2023-06-22T06:21:01.854Z,12.75
2023-06-22T06:23:30.088Z,12.85
2023-06-22T06:25:57.312Z,13.43
2023-06-22T06:28:26.410Z,12.63
2023-06-22T06:30:53.639Z,11.57
2023-06-22T06:33:23.780Z,11.68
2023-06-22T06:35:52.343Z,11.65
2023-06-22T06:38:19.568Z,12.80
2023-06-22T06:40:46.889Z,14.07
2023-06-22T06:43:14.125Z,12.93
2023-06-22T06:45:41.471Z,11.05
2023-06-22T06:48:08.750Z,11.88
2023-06-22T06:50:36.046Z,12.60
2023-06-22T06:53:03.372Z,11.40
2023-06-22T06:55:34.079Z,12.00
2023-06-22T06:58:02.928Z,12.02
2023-06-22T07:00:30.433Z,13.25
2023-06-22T07:02:57.830Z,10.52
2023-06-22T07:05:25.058Z,13.05
2023-06-22T07:07:52.345Z,13.60
2023-06-22T07:10:19.548Z,12.52
2023-06-22T07:12:46.725Z,12.02
2023-06-22T07:15:14.861Z,12.23
2023-06-22T07:17:42.508Z,11.90
2023-06-22T07:20:11.697Z,15.80
2023-06-22T07:22:40.047Z,11.10
2023-06-22T07:25:11.380Z,11.25
2023-06-22T07:27:43.811Z,13.20
2023-06-22T07:30:11.842Z,13.68
2023-06-22T07:32:39.157Z,12.87
2023-06-22T07:35:07.549Z,11.70
2023-06-22T07:37:36.318Z,13.27
2023-06-22T07:40:07.527Z,12.40
2023-06-22T07:42:35.061Z,14.25
2023-06-22T07:45:07.049Z,12.83
2023-06-22T07:47:36.564Z,12.38
2023-06-22T07:50:04.738Z,12.82
2023-06-22T07:52:32.848Z,14.45
2023-06-22T07:55:00.182Z,13.52
2023-06-22T07:57:33.558Z,14.73
2023-06-22T08:00:01.932Z,14.40
2023-06-22T08:02:41.146Z,14.38
2023-06-22T08:05:20.141Z,14.25
2023-06-22T08:07:57.297Z,14.93
2023-06-22T08:10:26.057Z,13.00
2023-06-22T08:12:53.696Z,11.73
2023-06-22T08:15:20.960Z,13.27
2023-06-22T08:17:48.198Z,12.95
2023-06-22T08:20:15.528Z,14.57
2023-06-22T08:22:43.887Z,13.13
2023-06-22T08:25:11.980Z,13.73
2023-06-22T08:27:39.438Z,13.13
2023-06-22T08:30:07.999Z,12.90
2023-06-22T08:32:35.378Z,13.27
2023-06-22T08:35:02.688Z,13.27
2023-06-22T08:37:33.008Z,13.35
2023-06-22T08:40:02.294Z,13.93
2023-06-22T08:42:29.742Z,11.90
2023-06-22T08:44:57.015Z,12.75
2023-06-22T08:47:24.673Z,19.20
2023-06-22T08:49:52.049Z,11.65
2023-06-22T08:52:24.479Z,13.73
2023-06-22T08:54:52.566Z,13.73
2023-06-22T08:57:19.840Z,12.38
2023-06-22T08:59:47.049Z,13.40
2023-06-22T09:02:14.312Z,13.63
2023-06-22T09:04:42.890Z,14.80
2023-06-22T09:07:10.237Z,13.13
2023-06-22T09:09:37.517Z,12.57
2023-06-22T09:12:05.549Z,12.67
2023-06-22T09:14:33.006Z,11.93
2023-06-22T09:17:00.315Z,13.43
2023-06-22T09:19:27.626Z,14.80
2023-06-22T09:21:54.999Z,14.48
2023-06-22T09:24:22.468Z,11.03
2023-06-22T09:26:49.851Z,15.85
2023-06-22T09:29:17.208Z,14.35
2023-06-22T09:31:45.417Z,15.52
2023-06-22T09:34:12.687Z,13.20
2023-06-22T09:36:40.974Z,12.00
2023-06-22T09:39:08.875Z,12.60
2023-06-22T09:41:36.075Z,14.25
2023-06-22T09:44:03.352Z,16.52
2023-06-22T09:46:30.646Z,14.88
2023-06-22T09:48:57.922Z,12.20
2023-06-22T09:51:25.190Z,15.45
2023-06-22T09:53:55.083Z,13.48
2023-06-22T09:56:22.459Z,11.48
2023-06-22T09:58:52.138Z,13.68
2023-06-22T10:01:22.211Z,15.53
2023-06-22T10:03:49.645Z,12.30
2023-06-22T10:06:16.997Z,11.75
2023-06-22T10:08:44.277Z,13.13
2023-06-22T10:11:11.674Z,12.55
2023-06-22T10:13:38.862Z,14.83
2023-06-22T10:16:06.284Z,13.93
2023-06-22T10:18:33.663Z,11.30
2023-06-22T10:21:01.208Z,13.10
2023-06-22T10:23:28.480Z,11.10
2023-06-22T10:25:55.693Z,12.80
2023-06-22T10:28:22.911Z,13.45
2023-06-22T10:30:50.116Z,12.50
2023-06-22T10:33:17.644Z,12.35
2023-06-22T10:35:44.890Z,11.77
2023-06-22T10:38:12.211Z,10.90
2023-06-22T10:40:40.730Z,12.15
2023-06-22T10:43:08.006Z,14.00
2023-06-22T10:45:35.262Z,13.10
2023-06-22T10:48:02.775Z,11.77
2023-06-22T10:50:30.279Z,11.60
2023-06-22T10:53:00.374Z,13.00
2023-06-22T10:55:31.074Z,11.23
2023-06-22T10:58:06.298Z,14.45
2023-06-22T11:00:34.952Z,10.95
2023-06-22T11:03:02.322Z,12.43
2023-06-22T11:05:29.955Z,13.65
2023-06-22T11:07:57.548Z,12.13
2023-06-22T11:10:25.050Z,13.43
2023-06-22T11:12:52.295Z,14.20
2023-06-22T11:15:19.584Z,12.47
2023-06-22T11:17:47.059Z,12.45
2023-06-22T11:20:14.616Z,16.33
2023-06-22T11:22:42.301Z,11.98
2023-06-22T11:25:10.151Z,14.38
2023-06-22T11:27:37.616Z,12.87
2023-06-22T11:30:05.549Z,14.07
2023-06-22T11:32:33.174Z,12.73
2023-06-22T11:35:00.449Z,12.48
2023-06-22T11:37:27.873Z,13.57
2023-06-22T11:40:07.203Z,12.07
2023-06-22T11:42:35.557Z,16.50
2023-06-22T11:45:03.572Z,12.27
2023-06-22T11:47:30.926Z,12.25
2023-06-22T11:49:58.208Z,11.30
2023-06-22T11:52:25.500Z,12.00
2023-06-22T11:54:52.678Z,12.00
2023-06-22T11:57:19.944Z,14.90
2023-06-22T11:59:47.361Z,11.15
2023-06-22T12:02:14.724Z,14.52
2023-06-22T12:04:41.957Z,14.93
2023-06-22T12:07:09.177Z,11.38
2023-06-22T12:09:36.373Z,12.95
2023-06-22T12:12:04.085Z,11.43
2023-06-22T12:14:32.525Z,13.05
2023-06-22T12:16:59.998Z,10.57
2023-06-22T12:19:27.210Z,12.15
2023-06-22T12:21:54.463Z,12.88
2023-06-22T12:24:21.677Z,12.93
2023-06-22T12:26:49.306Z,12.38
2023-06-22T12:29:16.472Z,11.23
2023-06-22T12:31:43.788Z,13.20
2023-06-22T12:34:11.202Z,11.23
2023-06-22T12:36:38.427Z,11.55
2023-06-22T12:39:05.679Z,11.48
2023-06-22T12:41:33.390Z,10.67
2023-06-22T12:44:00.593Z,13.35
2023-06-22T12:46:27.798Z,13.13
2023-06-22T12:48:54.975Z,13.95
2023-06-22T12:51:25.097Z,11.40
2023-06-22T12:53:52.482Z,9.97
2023-06-22T12:56:19.912Z,13.90
2023-06-22T12:58:47.243Z,11.45
2023-06-22T13:01:14.709Z,12.75
2023-06-22T13:03:43.309Z,13.75
2023-06-22T13:06:10.543Z,12.33
2023-06-22T13:09:18.018Z,13.25
2023-06-22T13:11:24.965Z,13.73
2023-06-22T13:13:52.165Z,12.23
2023-06-22T13:16:19.415Z,11.32
2023-06-22T13:18:46.623Z,17.03
2023-06-22T13:21:15.340Z,12.40
2023-06-22T13:23:42.540Z,12.60
2023-06-22T13:26:09.852Z,12.07
2023-06-22T13:28:37.030Z,16.98
2023-06-22T13:31:04.355Z,11.93
2023-06-22T13:33:31.559Z,17.13
2023-06-22T13:35:58.811Z,10.35
2023-06-22T13:38:26.015Z,12.02
2023-06-22T13:40:53.299Z,11.75
2023-06-22T13:43:20.529Z,12.33
2023-06-22T13:45:47.935Z,11.57
2023-06-22T13:48:15.452Z,16.52
2023-06-22T13:50:42.663Z,10.32
2023-06-22T13:53:09.869Z,12.45
2023-06-22T13:55:37.083Z,12.90
2023-06-22T13:58:04.313Z,10.75
2023-06-22T14:00:31.801Z,12.82
2023-06-22T14:02:59.435Z,9.90
2023-06-22T14:05:26.656Z,16.08
2023-06-22T14:07:53.938Z,14.33
2023-06-22T14:10:21.237Z,14.05
2023-06-22T14:12:48.387Z,13.85
2023-06-22T14:15:15.637Z,14.27
2023-06-22T14:17:42.995Z,11.52
2023-06-22T14:20:10.702Z,12.50
2023-06-22T14:22:37.943Z,13.50
2023-06-22T14:25:06.282Z,16.23
2023-06-22T14:27:33.639Z,13.90
2023-06-22T14:30:00.888Z,12.48
2023-06-22T14:32:31.208Z,12.53
2023-06-22T14:34:58.517Z,11.48
2023-06-22T14:37:25.687Z,11.57
2023-06-22T14:39:52.989Z,16.13
2023-06-22T14:42:20.219Z,11.00
2023-06-22T14:44:47.405Z,15.27
2023-06-22T14:47:14.684Z,12.77
2023-06-22T14:49:42.426Z,11.65
2023-06-22T14:52:09.815Z,12.57
2023-06-22T14:54:37.006Z,13.40
2023-06-22T14:57:04.333Z,11.27
2023-06-22T14:59:31.603Z,12.55
2023-06-22T15:01:58.833Z,13.50
2023-06-22T15:04:27.352Z,14.80
2023-06-22T15:06:55.081Z,12.90
2023-06-22T15:09:22.372Z,12.03
2023-06-22T15:11:50.008Z,13.07
2023-06-22T15:14:17.252Z,12.68
2023-06-22T15:16:44.473Z,14.45
2023-06-22T15:19:13.707Z,13.82
2023-06-22T15:21:40.929Z,13.07
2023-06-22T15:24:08.436Z,18.73
2023-06-22T15:26:35.631Z,11.45
2023-06-22T15:29:03.065Z,12.13
2023-06-22T15:31:30.304Z,13.25
2023-06-22T15:33:57.728Z,10.87
2023-06-22T15:36:24.951Z,11.15
2023-06-22T15:38:52.232Z,13.00
2023-06-22T15:41:19.388Z,13.55
2023-06-22T15:43:46.600Z,12.10
2023-06-22T15:46:14.055Z,13.33
2023-06-22T15:48:41.373Z,10.60
2023-06-22T15:51:08.603Z,12.38
2023-06-22T15:53:35.860Z,14.10
2023-06-22T15:56:03.051Z,11.95
2023-06-22T15:58:30.269Z,12.47
2023-06-22T16:00:57.552Z,11.88
2023-06-22T16:03:24.870Z,12.80
2023-06-22T16:05:52.123Z,14.55
2023-06-22T16:08:19.396Z,13.02
2023-06-22T16:10:46.548Z,12.93
2023-06-22T16:13:13.795Z,13.35
2023-06-22T16:15:40.979Z,14.07
2023-06-22T16:18:08.941Z,13.05
2023-06-22T16:20:36.217Z,12.05
2023-06-22T16:23:03.701Z,15.77
2023-06-22T16:25:30.926Z,12.02
2023-06-22T16:27:58.185Z,15.23
2023-06-22T16:30:25.404Z,11.05
2023-06-22T16:32:59.723Z,13.52
2023-06-22T16:35:27.533Z,10.60
2023-06-22T16:37:55.706Z,14.20
2023-06-22T16:40:23.848Z,15.57
2023-06-22T16:42:53.314Z,11.35
2023-06-22T16:45:21.878Z,13.80
2023-06-22T16:47:51.903Z,13.73
2023-06-22T16:50:19.800Z,12.73
2023-06-22T16:52:48.011Z,15.25
2023-06-22T16:55:15.655Z,13.43
2023-06-22T16:57:43.513Z,13.68
2023-06-22T17:00:12.934Z,13.83
2023-06-22T17:02:47.454Z,12.40
2023-06-22T17:05:15.582Z,13.85
2023-06-22T17:07:50.139Z,16.30
2023-06-22T17:10:18.567Z,14.18
2023-06-22T17:12:46.723Z,12.40
2023-06-22T17:15:14.284Z,13.35
2023-06-22T17:17:41.803Z,14.40
2023-06-22T17:20:09.606Z,16.27
2023-06-22T17:22:37.133Z,16.77
2023-06-22T17:25:07.031Z,15.13
2023-06-22T17:27:34.922Z,22.60
2023-06-22T17:30:06.520Z,15.20
2023-06-22T17:32:33.799Z,11.52
2023-06-22T17:35:01.181Z,14.25
2023-06-22T17:37:34.710Z,13.23
2023-06-22T17:40:01.974Z,12.68
2023-06-22T17:42:29.325Z,15.80
2023-06-22T17:45:01.732Z,14.32
2023-06-22T17:47:29.550Z,13.20
2023-06-22T17:50:05.634Z,12.50
2023-06-22T17:52:33.323Z,14.50
2023-06-22T17:57:38.624Z,11.38
2023-06-22T18:00:10.174Z,13.18
2023-06-22T18:02:43.903Z,14.57
2023-06-22T18:05:11.875Z,11.30
2023-06-22T18:07:39.305Z,13.93
2023-06-22T18:10:08.749Z,13.98
2023-06-22T18:12:37.623Z,16.05
2023-06-22T18:15:05.522Z,14.60
2023-06-22T18:17:33.687Z,16.88
2023-06-22T18:20:02.306Z,19.33
2023-06-22T18:22:30.013Z,14.73
2023-06-22T18:24:57.438Z,16.77
2023-06-22T18:27:25.697Z,12.90
2023-06-22T18:29:56.324Z,13.52
2023-06-22T18:32:23.710Z,15.65
2023-06-22T18:34:52.585Z,13.75
2023-06-22T18:37:21.066Z,14.40
2023-06-22T18:39:54.108Z,15.33
2023-06-22T18:42:21.974Z,18.60
2023-06-22T18:44:53.933Z,13.75
2023-06-22T18:47:29.275Z,16.63
2023-06-22T18:50:08.097Z,15.10
2023-06-22T18:52:37.238Z,18.00
2023-06-22T18:55:05.761Z,13.50
2023-06-22T18:57:34.456Z,16.27
2023-06-22T19:00:13.905Z,16.10
2023-06-22T19:02:44.084Z,18.38
2023-06-22T19:05:14.473Z,15.07
2023-06-22T19:07:58.801Z,16.02
2023-06-22T19:10:38.286Z,16.02
2023-06-22T19:13:19.763Z,15.57
2023-06-22T19:16:13.961Z,14.30
2023-06-22T19:18:42.017Z,14.10
2023-06-22T19:21:13.533Z,19.80
2023-06-22T19:23:42.344Z,17.08
2023-06-22T19:26:17.857Z,19.67
2023-06-22T19:28:49.539Z,18.35
2023-06-22T19:31:18.851Z,16.27
2023-06-22T19:33:46.213Z,16.67
2023-06-22T19:36:13.925Z,16.33
2023-06-22T19:38:41.326Z,14.15
2023-06-22T19:41:09.858Z,13.82
2023-06-22T19:43:37.504Z,18.40
2023-06-22T19:46:04.805Z,14.00
2023-06-22T19:48:32.402Z,17.02
2023-06-22T19:51:04.486Z,14.32
2023-06-22T19:53:32.073Z,15.07
2023-06-22T19:55:59.413Z,14.50
2023-06-22T19:58:26.986Z,17.92
2023-06-22T20:00:59.869Z,15.82
2023-06-22T20:03:31.901Z,19.50
2023-06-22T20:06:12.702Z,17.88
2023-06-22T20:09:05.330Z,15.50
2023-06-22T20:11:34.428Z,14.95
2023-06-22T20:14:02.470Z,12.82
2023-06-22T20:16:30.369Z,14.85
2023-06-22T20:19:12.779Z,16.13
2023-06-22T20:21:41.231Z,14.63
2023-06-22T20:24:09.868Z,15.57
2023-06-22T20:26:43.065Z,18.63
2023-06-22T20:29:26.194Z,17.10
2023-06-22T20:32:13.882Z,14.20
2023-06-22T20:34:49.030Z,15.40
2023-06-22T20:37:19.854Z,19.02
2023-06-22T20:39:49.283Z,16.40
2023-06-22T20:42:18.655Z,18.73
2023-06-22T20:44:51.313Z,15.55
2023-06-22T20:47:21.344Z,16.67
2023-06-22T20:49:50.148Z,15.82
2023-06-22T20:52:18.772Z,14.07
2023-06-22T20:54:46.524Z,14.10
2023-06-22T20:57:13.803Z,15.05
2023-06-22T20:59:41.060Z,18.50
2023-06-22T21:02:09.131Z,22.10
2023-06-22T21:04:38.033Z,19.35
2023-06-22T21:07:06.395Z,17.92
2023-06-22T21:09:46.029Z,21.65
2023-06-22T21:12:19.393Z,18.97
2023-06-22T21:14:46.732Z,19.58
2023-06-22T21:17:13.960Z,24.00
2023-06-22T21:19:41.210Z,20.33
2023-06-22T21:22:08.552Z,18.88
2023-06-22T21:24:35.757Z,18.50
2023-06-22T21:27:03.615Z,19.33
2023-06-22T21:29:30.775Z,23.15
2023-06-22T21:31:58.035Z,22.65
2023-06-22T21:34:26.516Z,23.63
2023-06-22T21:36:55.246Z,19.07
2023-06-22T21:39:22.398Z,22.88
2023-06-22T21:41:49.666Z,21.02
2023-06-22T21:44:16.886Z,20.65
2023-06-22T21:46:44.099Z,20.23
2023-06-22T21:49:11.321Z,19.77
2023-06-22T21:51:38.574Z,21.95
2023-06-22T21:54:05.872Z,20.27
2023-06-22T21:56:33.061Z,18.10
2023-06-22T21:59:00.236Z,19.63
2023-06-22T22:01:27.657Z,21.00
2023-06-22T22:03:54.975Z,19.13
2023-06-22T22:06:24.316Z,21.52
2023-06-22T22:08:51.528Z,23.33
2023-06-22T22:11:18.887Z,22.38
2023-06-22T22:13:46.598Z,16.93
2023-06-22T22:16:15.017Z,17.83
2023-06-22T22:18:42.464Z,18.55
2023-06-22T22:21:09.792Z,22.45
2023-06-22T22:23:36.955Z,18.27
2023-06-22T22:26:04.775Z,18.10
2023-06-22T22:28:32.364Z,15.77
2023-06-22T22:31:01.854Z,19.38
2023-06-22T22:33:30.292Z,18.63
2023-06-22T22:36:00.246Z,18.75
2023-06-22T22:38:27.467Z,18.90
2023-06-22T22:40:54.752Z,17.95
2023-06-22T22:43:21.978Z,17.17
2023-06-22T22:45:49.209Z,22.10
2023-06-22T22:48:16.433Z,17.55
2023-06-22T22:50:43.940Z,18.90
2023-06-22T22:53:11.108Z,20.02
2023-06-22T22:55:38.305Z,17.33
2023-06-22T22:58:06.079Z,18.73
2023-06-22T23:00:33.671Z,17.48
2023-06-22T23:03:03.011Z,15.80
2023-06-22T23:05:30.772Z,15.93
2023-06-22T23:07:58.225Z,18.25
2023-06-22T23:10:25.485Z,15.30
2023-06-22T23:12:52.651Z,16.80
2023-06-22T23:15:20.011Z,19.07
2023-06-22T23:17:47.293Z,17.60
2023-06-22T23:20:18.372Z,16.85
2023-06-22T23:22:45.802Z,18.60
2023-06-22T23:25:13.426Z,15.82
2023-06-22T23:27:40.708Z,18.17
2023-06-22T23:30:11.275Z,17.10
2023-06-22T23:32:39.342Z,16.67
2023-06-22T23:35:13.075Z,17.65
2023-06-22T23:37:42.928Z,21.73
2023-06-22T23:40:17.478Z,18.53
2023-06-22T23:42:47.997Z,17.13
2023-06-22T23:45:22.800Z,19.85
2023-06-22T23:47:50.828Z,16.60
2023-06-22T23:50:19.306Z,17.58
2023-06-22T23:52:50.458Z,16.40
2023-06-22T23:55:19.294Z,18.85
2023-06-22T23:57:46.504Z,18.15
